createdAt,value
2023-05-04T00:02:12.803Z,4.20
2023-05-04T00:04:42.690Z,4.10
2023-05-04T00:07:10.643Z,4.30
2023-05-04T00:09:38.716Z,4.30
2023-05-04T00:12:08.013Z,4.20
2023-05-04T00:14:37.507Z,4.00
2023-05-04T00:17:06.663Z,3.80
2023-05-04T00:19:34.951Z,3.90
2023-05-04T00:22:03.074Z,3.80
2023-05-04T00:24:30.929Z,3.80
2023-05-04T00:26:58.635Z,3.80
2023-05-04T00:29:26.388Z,3.80
2023-05-04T00:31:55.498Z,3.70
2023-05-04T00:34:23.395Z,3.60
2023-05-04T00:36:51.127Z,3.40
2023-05-04T00:39:19.568Z,3.30
2023-05-04T00:41:47.298Z,3.10
2023-05-04T00:44:15.097Z,3.00
2023-05-04T00:46:42.997Z,3.00
2023-05-04T00:49:12.463Z,2.80
2023-05-04T00:51:41.103Z,2.90
2023-05-04T00:54:08.842Z,2.90
2023-05-04T00:56:41.116Z,2.90
2023-05-04T00:59:08.854Z,3.00
2023-05-04T01:01:37.109Z,2.90
2023-05-04T01:04:05.882Z,3.00
2023-05-04T01:06:43.367Z,2.90
2023-05-04T01:09:18.470Z,2.90
2023-05-04T01:11:54.121Z,2.90
2023-05-04T01:14:22.816Z,2.90
2023-05-04T01:16:56.130Z,2.90
2023-05-04T01:19:24.090Z,2.70
2023-05-04T01:21:53.134Z,2.70
2023-05-04T01:24:21.515Z,2.60
2023-05-04T01:26:51.839Z,2.60
2023-05-04T01:29:26.569Z,2.60
2023-05-04T01:31:55.575Z,2.60
2023-05-04T01:34:23.921Z,2.60
2023-05-04T01:36:53.398Z,2.60
2023-05-04T01:39:21.994Z,2.60
2023-05-04T01:41:49.870Z,2.60
2023-05-04T01:44:17.745Z,2.60
2023-05-04T01:46:45.854Z,2.50
2023-05-04T01:49:13.632Z,2.50
2023-05-04T01:51:41.507Z,2.50
2023-05-04T01:54:10.610Z,2.60
2023-05-04T01:56:38.319Z,2.60
2023-05-04T01:59:06.030Z,2.60
2023-05-04T02:01:33.817Z,2.50
2023-05-04T02:04:04.611Z,2.50
2023-05-04T02:06:32.619Z,2.50
2023-05-04T02:09:00.338Z,2.50
2023-05-04T02:11:29.370Z,2.40
2023-05-04T02:13:57.109Z,2.40
2023-05-04T02:16:24.914Z,2.40
2023-05-04T02:18:52.644Z,2.50
2023-05-04T02:21:20.738Z,2.40
2023-05-04T02:23:48.453Z,2.30
2023-05-04T02:26:16.304Z,2.30
2023-05-04T02:28:45.380Z,2.40
2023-05-04T02:31:13.144Z,2.30
2023-05-04T02:33:40.902Z,2.20
2023-05-04T02:36:08.924Z,2.20
2023-05-04T02:38:36.636Z,2.10
2023-05-04T02:41:04.359Z,2.00
2023-05-04T02:43:32.084Z,2.00
2023-05-04T02:46:01.227Z,2.20
2023-05-04T02:48:29.197Z,2.20
2023-05-04T02:50:56.931Z,2.30
2023-05-04T02:53:24.656Z,2.30
2023-05-04T02:55:52.393Z,2.30
2023-05-04T02:58:20.234Z,2.20
2023-05-04T03:00:47.991Z,2.10
2023-05-04T03:03:17.100Z,2.00
2023-05-04T03:05:44.832Z,2.00
2023-05-04T03:08:12.555Z,2.00
2023-05-04T03:10:40.275Z,2.00
2023-05-04T03:13:08.064Z,2.00
2023-05-04T03:15:35.919Z,2.10
2023-05-04T03:18:03.748Z,2.20
2023-05-04T03:20:32.826Z,2.10
2023-05-04T03:23:00.526Z,2.20
2023-05-04T03:25:28.318Z,2.10
2023-05-04T03:27:56.223Z,2.00
2023-05-04T03:30:23.990Z,2.00
2023-05-04T03:32:51.767Z,1.90
2023-05-04T03:35:24.618Z,1.90
2023-05-04T03:37:54.180Z,1.90
2023-05-04T03:40:24.150Z,2.00
2023-05-04T03:42:52.330Z,1.90
2023-05-04T03:45:20.521Z,1.90
2023-05-04T03:47:48.264Z,1.90
2023-05-04T03:50:16.085Z,1.90
2023-05-04T03:52:43.780Z,1.90
2023-05-04T03:55:12.832Z,1.90
2023-05-04T03:57:41.373Z,1.90
2023-05-04T04:00:09.979Z,2.00
2023-05-04T04:02:37.820Z,2.10
2023-05-04T04:05:06.494Z,2.00
2023-05-04T04:07:34.372Z,2.00
2023-05-04T04:10:02.166Z,2.00
2023-05-04T04:12:31.311Z,2.00
2023-05-04T04:14:59.026Z,2.00
2023-05-04T04:17:26.749Z,2.00
2023-05-04T04:19:54.465Z,2.00
2023-05-04T04:22:22.209Z,2.10
2023-05-04T04:24:49.915Z,2.10
2023-05-04T04:27:17.704Z,2.10
2023-05-04T04:29:46.784Z,2.10
2023-05-04T04:32:14.562Z,2.20
2023-05-04T04:34:42.367Z,2.30
2023-05-04T04:37:10.172Z,2.40
2023-05-04T04:39:37.990Z,2.50
2023-05-04T04:42:05.748Z,2.60
2023-05-04T04:44:33.601Z,2.80
2023-05-04T04:47:02.905Z,2.80
2023-05-04T04:49:30.733Z,3.00
2023-05-04T04:51:58.438Z,3.10
2023-05-04T04:54:27.203Z,3.30
2023-05-04T04:56:55.018Z,3.40
2023-05-04T04:59:24.974Z,3.50
2023-05-04T05:01:52.755Z,3.60
2023-05-04T05:04:22.270Z,3.80
2023-05-04T05:06:51.497Z,3.90
2023-05-04T05:09:19.230Z,4.10
2023-05-04T05:11:46.924Z,4.20
2023-05-04T05:14:14.682Z,4.30
2023-05-04T05:16:42.565Z,4.50
2023-05-04T05:19:10.358Z,4.60
2023-05-04T05:21:39.569Z,4.70
2023-05-04T05:24:07.523Z,4.80
2023-05-04T05:26:35.339Z,4.90
2023-05-04T05:29:03.249Z,5.00
2023-05-04T05:31:31.925Z,5.10
2023-05-04T05:33:59.840Z,5.30
2023-05-04T05:36:27.797Z,5.50
2023-05-04T05:38:56.833Z,5.60
2023-05-04T05:41:24.587Z,5.70
2023-05-04T05:43:52.280Z,5.90
2023-05-04T05:46:20.205Z,6.10
2023-05-04T05:48:47.965Z,6.30
2023-05-04T05:51:15.880Z,6.40
2023-05-04T05:53:44.852Z,6.60
2023-05-04T05:56:14.842Z,6.80
2023-05-04T05:58:42.627Z,6.90
2023-05-04T06:01:10.406Z,7.00
2023-05-04T06:03:38.277Z,7.10
2023-05-04T06:06:06.377Z,7.20
2023-05-04T06:08:34.144Z,7.30
2023-05-04T06:11:01.821Z,7.30
2023-05-04T06:13:30.865Z,7.50
2023-05-04T06:15:58.600Z,7.70
2023-05-04T06:18:26.393Z,7.70
2023-05-04T06:20:59.021Z,7.80
2023-05-04T06:23:27.982Z,7.80
2023-05-04T06:25:55.710Z,8.00
2023-05-04T06:28:23.553Z,8.20
2023-05-04T06:30:52.608Z,8.30
2023-05-04T06:33:20.348Z,8.40
2023-05-04T06:35:48.087Z,8.60
2023-05-04T06:38:15.822Z,8.70
2023-05-04T06:40:43.649Z,8.90
2023-05-04T06:43:11.565Z,9.10
2023-05-04T06:45:40.080Z,9.20
2023-05-04T06:48:09.335Z,9.30
2023-05-04T06:50:37.167Z,9.40
2023-05-04T06:53:07.463Z,9.50
2023-05-04T06:55:35.223Z,9.70
2023-05-04T06:58:02.945Z,9.90
2023-05-04T07:00:31.551Z,10.10
2023-05-04T07:02:59.377Z,10.20
2023-05-04T07:05:29.248Z,10.30
2023-05-04T07:07:58.861Z,10.30
2023-05-04T07:10:26.645Z,10.50
2023-05-04T07:12:54.412Z,10.80
2023-05-04T07:15:22.446Z,11.10
2023-05-04T07:17:50.334Z,11.30
2023-05-04T07:20:18.178Z,11.60
2023-05-04T07:22:47.333Z,11.70
2023-05-04T07:25:15.034Z,11.90
2023-05-04T07:27:45.062Z,12.10
2023-05-04T07:30:13.294Z,12.40
2023-05-04T07:32:41.020Z,12.60
2023-05-04T07:35:09.533Z,12.80
2023-05-04T07:37:37.564Z,13.10
2023-05-04T07:40:08.156Z,13.20
2023-05-04T07:42:36.083Z,13.40
2023-05-04T07:45:03.886Z,13.60
2023-05-04T07:47:32.125Z,13.90
2023-05-04T07:49:59.912Z,13.90
2023-05-04T07:52:27.657Z,14.20
2023-05-04T07:54:55.751Z,14.60
2023-05-04T07:57:24.812Z,15.30
2023-05-04T07:59:55.716Z,15.50
2023-05-04T08:02:23.779Z,15.80
2023-05-04T08:04:51.569Z,16.00
2023-05-04T08:07:20.557Z,16.20
2023-05-04T08:09:48.472Z,16.30
2023-05-04T08:12:16.163Z,16.30
2023-05-04T08:14:48.275Z,16.30
2023-05-04T08:17:16.387Z,16.40
2023-05-04T08:19:44.188Z,17.10
2023-05-04T08:22:11.926Z,18.10
2023-05-04T08:24:39.701Z,19.30
2023-05-04T08:27:09.413Z,21.60
2023-05-04T08:29:37.856Z,23.90
2023-05-04T08:32:07.724Z,26.80
2023-05-04T08:34:36.543Z,28.40
2023-05-04T08:37:04.511Z,29.90
2023-05-04T08:39:32.279Z,31.10
2023-05-04T08:42:00.092Z,32.30
2023-05-04T08:44:27.859Z,32.80
2023-05-04T08:46:56.809Z,31.70
2023-05-04T08:49:29.112Z,31.50
2023-05-04T08:51:57.488Z,32.70
2023-05-04T08:54:27.137Z,33.50
2023-05-04T08:56:56.825Z,34.10
2023-05-04T08:59:25.876Z,35.00
2023-05-04T09:01:58.554Z,35.20
2023-05-04T09:04:29.300Z,35.20
2023-05-04T09:06:58.528Z,36.00
2023-05-04T09:09:28.667Z,36.90
2023-05-04T09:11:56.710Z,36.10
2023-05-04T09:14:33.475Z,33.40
2023-05-04T09:17:02.034Z,33.60
2023-05-04T09:19:34.648Z,33.90
2023-05-04T09:22:02.488Z,32.90
2023-05-04T09:24:30.818Z,32.80
2023-05-04T09:27:09.956Z,31.10
2023-05-04T09:29:39.586Z,30.70
2023-05-04T09:32:12.301Z,31.40
2023-05-04T09:34:49.863Z,31.30
2023-05-04T09:37:18.432Z,31.90
2023-05-04T09:39:56.959Z,32.80
2023-05-04T09:42:24.814Z,31.50
2023-05-04T09:45:03.308Z,32.10
2023-05-04T09:47:38.611Z,31.60
2023-05-04T09:50:16.987Z,32.10
2023-05-04T09:52:48.066Z,32.70
2023-05-04T09:55:17.245Z,33.20
2023-05-04T09:57:46.590Z,33.40
2023-05-04T10:00:17.209Z,32.70
2023-05-04T10:02:46.524Z,33.00
2023-05-04T10:05:18.955Z,32.00
2023-05-04T10:07:47.354Z,30.90
2023-05-04T10:10:16.539Z,30.00
2023-05-04T10:12:46.039Z,30.50
2023-05-04T10:15:15.909Z,29.30
2023-05-04T10:18:08.543Z,30.50
2023-05-04T10:21:02.923Z,30.70
2023-05-04T10:23:49.986Z,29.70
2023-05-04T10:26:31.002Z,31.00
2023-05-04T10:29:12.832Z,31.40
2023-05-04T10:31:41.345Z,31.90
2023-05-04T10:34:10.579Z,32.20
2023-05-04T10:36:41.561Z,31.90
2023-05-04T10:39:19.437Z,32.30
2023-05-04T10:42:03.983Z,32.30
2023-05-04T10:44:32.778Z,32.20
2023-05-04T10:47:02.807Z,31.60
2023-05-04T10:49:30.852Z,31.30
2023-05-04T10:52:11.960Z,31.10
2023-05-04T10:54:41.657Z,31.00
2023-05-04T10:57:10.532Z,30.40
2023-05-04T10:59:39.360Z,30.00
2023-05-04T11:02:07.983Z,29.80
2023-05-04T11:04:36.462Z,29.40
2023-05-04T11:07:08.437Z,29.00
2023-05-04T11:09:39.393Z,29.20
2023-05-04T11:12:10.720Z,29.30
2023-05-04T11:14:42.561Z,28.90
2023-05-04T11:17:27.681Z,28.90
2023-05-04T11:19:56.598Z,28.30
2023-05-04T11:22:24.463Z,27.30
2023-05-04T11:24:54.952Z,26.80
2023-05-04T11:27:25.419Z,26.60
2023-05-04T11:29:57.336Z,26.30
2023-05-04T11:32:35.888Z,25.50
2023-05-04T11:35:04.505Z,24.70
2023-05-04T11:37:39.090Z,23.80
2023-05-04T11:40:13.056Z,23.50
2023-05-04T11:42:42.584Z,23.20
2023-05-04T11:45:13.220Z,22.90
2023-05-04T11:47:41.617Z,22.70
2023-05-04T11:50:12.485Z,22.90
2023-05-04T11:52:41.644Z,22.80
2023-05-04T11:55:12.142Z,22.60
2023-05-04T11:57:40.485Z,22.80
2023-05-04T12:00:09.812Z,22.80
2023-05-04T12:02:38.057Z,22.80
2023-05-04T12:05:14.128Z,22.80
2023-05-04T12:07:42.190Z,22.90
2023-05-04T12:10:11.699Z,22.90
2023-05-04T12:12:39.448Z,22.90
2023-05-04T12:15:08.868Z,22.90
2023-05-04T12:17:43.221Z,22.80
2023-05-04T12:20:11.759Z,23.00
2023-05-04T12:22:39.528Z,23.10
2023-05-04T12:25:09.317Z,22.60
2023-05-04T12:27:41.947Z,22.50
2023-05-04T12:30:11.151Z,22.40
2023-05-04T12:32:39.360Z,21.80
2023-05-04T12:35:08.198Z,21.70
2023-05-04T12:37:36.223Z,21.90
2023-05-04T12:40:11.256Z,21.90
2023-05-04T12:42:46.815Z,22.00
2023-05-04T12:45:16.196Z,22.10
2023-05-04T12:47:43.985Z,22.10
2023-05-04T12:50:12.154Z,22.30
2023-05-04T12:52:41.246Z,22.10
2023-05-04T12:55:09.513Z,22.00
2023-05-04T12:57:37.700Z,22.00
2023-05-04T13:00:09.991Z,22.00
2023-05-04T13:02:38.423Z,22.00
2023-05-04T13:05:07.565Z,22.20
2023-05-04T13:07:36.278Z,22.30
2023-05-04T13:10:04.674Z,22.50
2023-05-04T13:12:32.388Z,22.60
2023-05-04T13:15:00.725Z,22.70
2023-05-04T13:17:30.883Z,22.50
2023-05-04T13:19:58.580Z,22.40
2023-05-04T13:22:27.151Z,22.30
2023-05-04T13:24:54.868Z,22.20
2023-05-04T13:27:22.660Z,22.00
2023-05-04T13:29:50.417Z,21.70
2023-05-04T13:32:18.268Z,21.50
2023-05-04T13:34:48.156Z,21.50
2023-05-04T13:37:18.445Z,21.50
2023-05-04T13:39:46.989Z,21.40
2023-05-04T13:42:15.120Z,21.40
2023-05-04T13:44:45.467Z,21.30
2023-05-04T13:47:14.164Z,21.40
2023-05-04T13:49:42.043Z,21.40
2023-05-04T13:52:11.345Z,21.40
2023-05-04T13:54:39.213Z,21.40
2023-05-04T13:57:07.293Z,21.40
2023-05-04T13:59:35.078Z,21.50
2023-05-04T14:02:03.034Z,21.50
2023-05-04T14:04:31.777Z,21.50
2023-05-04T14:06:59.538Z,21.60
2023-05-04T14:09:28.657Z,21.50
2023-05-04T14:11:56.362Z,21.60
2023-05-04T14:14:24.076Z,21.50
2023-05-04T14:16:51.863Z,21.50
2023-05-04T14:19:19.756Z,21.40
2023-05-04T14:21:47.755Z,21.20
2023-05-04T14:24:15.484Z,21.00
2023-05-04T14:26:44.553Z,20.90
2023-05-04T14:29:12.358Z,20.70
2023-05-04T14:31:40.110Z,20.60
2023-05-04T14:34:07.910Z,20.60
2023-05-04T14:36:36.686Z,20.70
2023-05-04T14:39:04.655Z,20.60
2023-05-04T14:41:33.652Z,20.60
2023-05-04T14:44:02.744Z,20.50
2023-05-04T14:46:30.829Z,20.60
2023-05-04T14:48:58.633Z,20.80
2023-05-04T14:51:27.812Z,20.90
2023-05-04T14:53:55.830Z,21.00
2023-05-04T14:56:23.930Z,21.00
2023-05-04T14:58:52.152Z,21.00
2023-05-04T15:01:21.360Z,21.00
2023-05-04T15:03:49.411Z,20.90
2023-05-04T15:06:17.202Z,20.60
2023-05-04T15:08:44.912Z,20.40
2023-05-04T15:11:12.669Z,20.10
2023-05-04T15:13:40.565Z,20.00
2023-05-04T15:16:08.480Z,19.90
2023-05-04T15:18:37.525Z,19.80
2023-05-04T15:21:05.412Z,19.90
2023-05-04T15:23:33.141Z,19.90
2023-05-04T15:26:00.937Z,19.90
2023-05-04T15:28:28.867Z,19.90
2023-05-04T15:30:56.936Z,20.00
2023-05-04T15:33:24.680Z,20.10
2023-05-04T15:35:53.733Z,20.10
2023-05-04T15:38:22.057Z,20.10
2023-05-04T15:40:49.789Z,20.20
2023-05-04T15:43:17.522Z,20.10
2023-05-04T15:45:45.309Z,20.00
2023-05-04T15:48:13.040Z,19.90
2023-05-04T15:50:40.788Z,19.90
2023-05-04T15:53:09.857Z,19.90
2023-05-04T15:55:37.654Z,20.00
2023-05-04T15:58:05.393Z,20.00
2023-05-04T16:00:34.246Z,20.10
2023-05-04T16:03:02.090Z,20.20
2023-05-04T16:05:30.097Z,20.00
2023-05-04T16:07:58.378Z,20.00
2023-05-04T16:10:27.505Z,20.10
2023-05-04T16:12:55.241Z,20.10
2023-05-04T16:15:23.014Z,19.90
2023-05-04T16:17:50.850Z,19.90
2023-05-04T16:20:18.601Z,19.90
2023-05-04T16:22:46.513Z,19.80
2023-05-04T16:25:14.235Z,19.70
2023-05-04T16:27:43.377Z,19.50
2023-05-04T16:30:12.058Z,19.30
2023-05-04T16:32:39.790Z,19.20
2023-05-04T16:35:08.637Z,19.20
2023-05-04T16:37:37.112Z,19.20
2023-05-04T16:40:14.114Z,19.20
2023-05-04T16:42:43.952Z,19.30
2023-05-04T16:45:14.585Z,19.40
2023-05-04T16:47:42.817Z,19.40
2023-05-04T16:50:11.570Z,19.40
2023-05-04T16:52:40.341Z,19.50
2023-05-04T16:55:11.804Z,19.30
2023-05-04T16:57:40.331Z,19.30
2023-05-04T17:00:11.855Z,19.20
2023-05-04T17:02:39.790Z,19.10
2023-05-04T17:05:10.200Z,19.00
2023-05-04T17:07:39.659Z,18.80
2023-05-04T17:10:09.100Z,18.80
2023-05-04T17:12:37.164Z,18.70
2023-05-04T17:15:05.422Z,18.60
2023-05-04T17:17:34.543Z,18.60
2023-05-04T17:20:02.436Z,18.40
2023-05-04T17:22:30.239Z,18.30
2023-05-04T17:24:58.009Z,18.20
2023-05-04T17:27:25.818Z,18.10
2023-05-04T17:29:53.572Z,17.90
2023-05-04T17:32:21.350Z,17.90
2023-05-04T17:34:50.646Z,17.70
2023-05-04T17:37:18.422Z,17.70
2023-05-04T17:39:47.145Z,17.60
2023-05-04T17:42:15.887Z,17.50
2023-05-04T17:44:43.695Z,17.40
2023-05-04T17:47:11.519Z,17.30
2023-05-04T17:49:39.324Z,17.20
2023-05-04T17:52:08.824Z,17.10
2023-05-04T17:54:37.050Z,16.90
2023-05-04T17:57:05.029Z,16.80
2023-05-04T17:59:32.767Z,16.70
2023-05-04T18:02:00.668Z,16.60
2023-05-04T18:04:31.274Z,16.40
2023-05-04T18:06:59.336Z,16.30
2023-05-04T18:09:28.429Z,16.20
2023-05-04T18:11:57.006Z,16.20
2023-05-04T18:14:24.732Z,16.20
2023-05-04T18:16:52.579Z,16.10
2023-05-04T18:19:24.629Z,16.10
2023-05-04T18:21:52.565Z,16.10
2023-05-04T18:24:20.306Z,16.10
2023-05-04T18:26:49.733Z,16.00
2023-05-04T18:29:19.393Z,15.90
2023-05-04T18:31:48.711Z,15.70
2023-05-04T18:34:16.559Z,15.60
2023-05-04T18:36:44.459Z,15.50
2023-05-04T18:39:13.564Z,15.50
2023-05-04T18:41:41.466Z,15.40
2023-05-04T18:44:10.787Z,15.10
2023-05-04T18:46:38.516Z,14.90
2023-05-04T18:49:06.373Z,14.70
2023-05-04T18:51:34.135Z,14.50
2023-05-04T18:54:02.208Z,14.40
2023-05-04T18:56:30.003Z,14.50
2023-05-04T18:58:57.751Z,14.50
2023-05-04T19:01:27.781Z,14.50
2023-05-04T19:03:55.690Z,14.50
2023-05-04T19:06:23.544Z,14.50
2023-05-04T19:08:51.863Z,14.50
2023-05-04T19:11:19.897Z,14.50
2023-05-04T19:13:48.114Z,14.40
2023-05-04T19:16:17.168Z,14.30
2023-05-04T19:18:46.791Z,14.20
2023-05-04T19:21:14.629Z,14.10
2023-05-04T19:23:42.510Z,14.00
2023-05-04T19:26:10.415Z,13.90
2023-05-04T19:28:39.952Z,13.70
2023-05-04T19:31:08.423Z,13.50
2023-05-04T19:33:47.730Z,13.20
2023-05-04T19:36:17.912Z,13.10
2023-05-04T19:38:45.975Z,13.00
2023-05-04T19:41:14.365Z,13.10
2023-05-04T19:43:42.668Z,13.10
2023-05-04T19:46:10.623Z,13.00
2023-05-04T19:48:39.667Z,12.80
2023-05-04T19:51:07.603Z,12.70
2023-05-04T19:53:36.681Z,12.50
2023-05-04T19:56:04.477Z,12.60
2023-05-04T19:58:32.309Z,12.60
2023-05-04T20:01:00.400Z,12.60
2023-05-04T20:03:28.274Z,12.70
2023-05-04T20:05:56.471Z,12.60
2023-05-04T20:08:24.266Z,12.50
2023-05-04T20:10:53.357Z,12.60
2023-05-04T20:13:21.105Z,12.50
2023-05-04T20:15:48.939Z,12.60
2023-05-04T20:18:16.861Z,12.40
2023-05-04T20:20:44.889Z,12.20
2023-05-04T20:23:13.143Z,12.00
2023-05-04T20:25:41.190Z,11.90
2023-05-04T20:28:10.247Z,11.80
2023-05-04T20:30:38.311Z,11.70
2023-05-04T20:33:06.377Z,11.60
2023-05-04T20:35:34.358Z,11.50
2023-05-04T20:38:02.608Z,11.50
2023-05-04T20:40:30.737Z,11.60
2023-05-04T20:42:58.491Z,11.60
2023-05-04T20:45:27.564Z,11.50
2023-05-04T20:47:55.265Z,11.60
2023-05-04T20:50:23.101Z,11.60
2023-05-04T20:52:51.037Z,11.60
2023-05-04T20:55:18.987Z,11.60
2023-05-04T20:57:46.925Z,11.50
2023-05-04T21:00:16.061Z,11.60
2023-05-04T21:02:45.247Z,11.50
2023-05-04T21:05:13.231Z,11.50
2023-05-04T21:07:40.929Z,11.40
2023-05-04T21:10:09.982Z,11.40
2023-05-04T21:12:37.897Z,11.20
2023-05-04T21:15:06.542Z,11.10
2023-05-04T21:17:34.328Z,11.10
2023-05-04T21:20:04.065Z,10.90
2023-05-04T21:22:31.866Z,10.80
2023-05-04T21:24:59.749Z,10.70
2023-05-04T21:27:27.478Z,10.70
2023-05-04T21:29:55.182Z,10.70
2023-05-04T21:32:22.892Z,10.70
2023-05-04T21:34:53.902Z,10.60
2023-05-04T21:37:22.993Z,10.50
2023-05-04T21:39:54.842Z,10.40
2023-05-04T21:42:22.848Z,10.30
2023-05-04T21:44:54.575Z,10.30
2023-05-04T21:47:22.344Z,10.30
2023-05-04T21:49:51.279Z,10.20
2023-05-04T21:52:19.122Z,10.20
2023-05-04T21:54:48.470Z,10.20
2023-05-04T21:57:16.226Z,10.20
2023-05-04T21:59:43.971Z,10.20
2023-05-04T22:02:11.741Z,10.30
2023-05-04T22:04:43.227Z,10.30
2023-05-04T22:07:11.102Z,10.20
2023-05-04T22:09:38.933Z,10.20
2023-05-04T22:12:08.485Z,10.20
2023-05-04T22:14:36.211Z,10.10
2023-05-04T22:17:04.173Z,10.00
2023-05-04T22:19:31.994Z,9.90
2023-05-04T22:21:59.727Z,9.70
2023-05-04T22:24:27.635Z,9.60
2023-05-04T22:26:55.338Z,9.50
2023-05-04T22:29:24.397Z,9.40
2023-05-04T22:31:52.519Z,9.50
2023-05-04T22:34:20.429Z,9.60
2023-05-04T22:36:48.668Z,9.60
2023-05-04T22:39:16.697Z,9.50
2023-05-04T22:41:44.455Z,9.60
2023-05-04T22:44:12.242Z,9.60
2023-05-04T22:46:41.368Z,9.50
2023-05-04T22:49:09.184Z,9.50
2023-05-04T22:51:37.208Z,9.40
2023-05-04T22:54:05.080Z,9.30
2023-05-04T22:56:33.383Z,9.30
2023-05-04T22:59:01.070Z,9.20
2023-05-04T23:01:30.059Z,9.20
2023-05-04T23:03:59.288Z,9.20
2023-05-04T23:06:28.405Z,9.10
2023-05-04T23:08:56.149Z,9.10
2023-05-04T23:11:23.961Z,9.10
2023-05-04T23:13:52.205Z,9.00
2023-05-04T23:16:19.981Z,9.10
2023-05-04T23:18:48.736Z,9.00
2023-05-04T23:21:17.779Z,8.90
2023-05-04T23:23:45.758Z,8.90
2023-05-04T23:26:13.485Z,8.80
2023-05-04T23:28:41.181Z,8.80
2023-05-04T23:31:08.903Z,8.80
2023-05-04T23:33:36.663Z,8.70
2023-05-04T23:36:04.679Z,8.80
2023-05-04T23:38:33.714Z,8.70
2023-05-04T23:41:03.347Z,8.70
2023-05-04T23:43:31.827Z,8.70
2023-05-04T23:46:00.755Z,8.70
2023-05-04T23:48:28.721Z,8.70
2023-05-04T23:50:58.365Z,8.60
2023-05-04T23:53:26.527Z,8.60
2023-05-04T23:56:04.121Z,8.60
2023-05-04T23:58:33.424Z,8.50
